sensor_id;sensor_type;location;lat;lon;timestamp;P1;durP1;ratioP1;P2;durP2;ratioP2
69551;SDS011;63774;45.292;11.784;2023-11-19T00:00:44;16.40;;;10.50;;
69551;SDS011;63774;45.292;11.784;2023-11-19T00:03:09;16.40;;;10.40;;
69551;SDS011;63774;45.292;11.784;2023-11-19T00:05:39;16.70;;;10.50;;
69551;SDS011;63774;45.292;11.784;2023-11-19T00:08:05;17.20;;;10.50;;
69551;SDS011;63774;45.292;11.784;2023-11-19T00:10:31;16.10;;;10.40;;
69551;SDS011;63774;45.292;11.784;2023-11-19T00:12:56;17.40;;;11.10;;
69551;SDS011;63774;45.292;11.784;2023-11-19T00:15:22;17.00;;;10.10;;
69551;SDS011;63774;45.292;11.784;2023-11-19T00:17:49;16.60;;;10.10;;
69551;SDS011;63774;45.292;11.784;2023-11-19T00:20:15;15.80;;;10.40;;
69551;SDS011;63774;45.292;11.784;2023-11-19T00:22:41;16.00;;;10.10;;
69551;SDS011;63774;45.292;11.784;2023-11-19T00:25:07;15.20;;;9.90;;
69551;SDS011;63774;45.292;11.784;2023-11-19T00:27:33;16.10;;;10.30;;
69551;SDS011;63774;45.292;11.784;2023-11-19T00:29:58;18.50;;;10.80;;
69551;SDS011;63774;45.292;11.784;2023-11-19T00:32:26;16.40;;;10.30;;
69551;SDS011;63774;45.292;11.784;2023-11-19T00:34:51;16.10;;;10.20;;
69551;SDS011;63774;45.292;11.784;2023-11-19T00:37:17;16.10;;;9.80;;
69551;SDS011;63774;45.292;11.784;2023-11-19T00:39:42;15.30;;;9.60;;
69551;SDS011;63774;45.292;11.784;2023-11-19T00:42:09;14.70;;;9.90;;
69551;SDS011;63774;45.292;11.784;2023-11-19T00:44:35;14.30;;;9.30;;
69551;SDS011;63774;45.292;11.784;2023-11-19T00:47:00;14.30;;;9.90;;
69551;SDS011;63774;45.292;11.784;2023-11-19T00:49:26;16.00;;;10.10;;
69551;SDS011;63774;45.292;11.784;2023-11-19T00:51:51;13.90;;;9.50;;
69551;SDS011;63774;45.292;11.784;2023-11-19T00:54:17;14.70;;;9.70;;
69551;SDS011;63774;45.292;11.784;2023-11-19T00:56:42;15.30;;;10.10;;
69551;SDS011;63774;45.292;11.784;2023-11-19T00:59:07;13.60;;;8.90;;
69551;SDS011;63774;45.292;11.784;2023-11-19T01:01:32;14.90;;;10.00;;
69551;SDS011;63774;45.292;11.784;2023-11-19T01:03:58;15.20;;;10.10;;
69551;SDS011;63774;45.292;11.784;2023-11-19T01:06:27;13.80;;;9.40;;
69551;SDS011;63774;45.292;11.784;2023-11-19T01:08:52;14.60;;;9.50;;
69551;SDS011;63774;45.292;11.784;2023-11-19T01:11:21;13.90;;;9.40;;
69551;SDS011;63774;45.292;11.784;2023-11-19T01:13:47;14.00;;;9.50;;
69551;SDS011;63774;45.292;11.784;2023-11-19T01:16:12;14.70;;;9.50;;
69551;SDS011;63774;45.292;11.784;2023-11-19T01:18:38;14.90;;;9.30;;
69551;SDS011;63774;45.292;11.784;2023-11-19T01:21:04;15.40;;;9.70;;
69551;SDS011;63774;45.292;11.784;2023-11-19T01:23:29;14.20;;;9.40;;
69551;SDS011;63774;45.292;11.784;2023-11-19T01:25:54;16.40;;;9.80;;
69551;SDS011;63774;45.292;11.784;2023-11-19T01:28:20;15.20;;;9.50;;
69551;SDS011;63774;45.292;11.784;2023-11-19T01:30:45;14.00;;;9.30;;
69551;SDS011;63774;45.292;11.784;2023-11-19T01:33:10;13.60;;;9.10;;
69551;SDS011;63774;45.292;11.784;2023-11-19T01:35:36;13.30;;;8.90;;
69551;SDS011;63774;45.292;11.784;2023-11-19T01:38:04;15.00;;;9.00;;
69551;SDS011;63774;45.292;11.784;2023-11-19T01:40:33;13.60;;;8.90;;
69551;SDS011;63774;45.292;11.784;2023-11-19T01:43:02;14.90;;;9.50;;
69551;SDS011;63774;45.292;11.784;2023-11-19T01:45:28;13.20;;;9.10;;
69551;SDS011;63774;45.292;11.784;2023-11-19T01:47:57;14.50;;;9.30;;
69551;SDS011;63774;45.292;11.784;2023-11-19T01:50:25;13.60;;;8.80;;
69551;SDS011;63774;45.292;11.784;2023-11-19T01:52:52;14.90;;;8.90;;
69551;SDS011;63774;45.292;11.784;2023-11-19T01:55:19;12.50;;;8.50;;
69551;SDS011;63774;45.292;11.784;2023-11-19T01:57:45;12.40;;;8.60;;
69551;SDS011;63774;45.292;11.784;2023-11-19T02:00:11;13.50;;;8.60;;
69551;SDS011;63774;45.292;11.784;2023-11-19T02:02:38;12.90;;;8.50;;
69551;SDS011;63774;45.292;11.784;2023-11-19T02:05:05;13.60;;;9.10;;
69551;SDS011;63774;45.292;11.784;2023-11-19T02:07:30;14.10;;;8.80;;
69551;SDS011;63774;45.292;11.784;2023-11-19T02:09:56;12.70;;;8.60;;
69551;SDS011;63774;45.292;11.784;2023-11-19T02:12:24;12.90;;;8.50;;
69551;SDS011;63774;45.292;11.784;2023-11-19T02:14:49;13.30;;;8.90;;
69551;SDS011;63774;45.292;11.784;2023-11-19T02:17:27;13.00;;;8.40;;
69551;SDS011;63774;45.292;11.784;2023-11-19T02:19:53;13.50;;;9.00;;
69551;SDS011;63774;45.292;11.784;2023-11-19T02:22:18;14.80;;;9.00;;
69551;SDS011;63774;45.292;11.784;2023-11-19T02:24:45;12.30;;;8.50;;
69551;SDS011;63774;45.292;11.784;2023-11-19T02:27:15;14.50;;;9.00;;
69551;SDS011;63774;45.292;11.784;2023-11-19T02:29:41;13.80;;;8.40;;
69551;SDS011;63774;45.292;11.784;2023-11-19T02:32:06;13.40;;;8.80;;
69551;SDS011;63774;45.292;11.784;2023-11-19T02:34:34;11.60;;;7.80;;
69551;SDS011;63774;45.292;11.784;2023-11-19T02:36:59;12.90;;;8.80;;
69551;SDS011;63774;45.292;11.784;2023-11-19T02:39:25;13.10;;;8.60;;
69551;SDS011;63774;45.292;11.784;2023-11-19T02:41:51;13.40;;;8.60;;
69551;SDS011;63774;45.292;11.784;2023-11-19T02:44:18;13.30;;;8.50;;
69551;SDS011;63774;45.292;11.784;2023-11-19T02:46:43;11.90;;;8.00;;
69551;SDS011;63774;45.292;11.784;2023-11-19T02:49:08;12.20;;;8.70;;
69551;SDS011;63774;45.292;11.784;2023-11-19T02:51:33;13.70;;;8.50;;
69551;SDS011;63774;45.292;11.784;2023-11-19T02:54:00;13.40;;;8.30;;
69551;SDS011;63774;45.292;11.784;2023-11-19T02:56:25;13.00;;;8.40;;
69551;SDS011;63774;45.292;11.784;2023-11-19T02:58:51;12.50;;;8.60;;
69551;SDS011;63774;45.292;11.784;2023-11-19T03:01:23;11.60;;;8.20;;
69551;SDS011;63774;45.292;11.784;2023-11-19T03:03:54;12.70;;;8.70;;
69551;SDS011;63774;45.292;11.784;2023-11-19T03:06:20;12.20;;;7.90;;
69551;SDS011;63774;45.292;11.784;2023-11-19T03:08:46;13.60;;;8.30;;
69551;SDS011;63774;45.292;11.784;2023-11-19T03:11:13;13.30;;;8.80;;
69551;SDS011;63774;45.292;11.784;2023-11-19T03:13:39;11.60;;;7.80;;
69551;SDS011;63774;45.292;11.784;2023-11-19T03:16:07;12.70;;;8.20;;
69551;SDS011;63774;45.292;11.784;2023-11-19T03:18:32;12.00;;;7.80;;
69551;SDS011;63774;45.292;11.784;2023-11-19T03:20:58;11.60;;;7.90;;
69551;SDS011;63774;45.292;11.784;2023-11-19T03:23:24;12.00;;;7.80;;
69551;SDS011;63774;45.292;11.784;2023-11-19T03:25:49;11.00;;;7.90;;
69551;SDS011;63774;45.292;11.784;2023-11-19T03:28:14;13.50;;;8.20;;
69551;SDS011;63774;45.292;11.784;2023-11-19T03:30:39;12.10;;;8.10;;
69551;SDS011;63774;45.292;11.784;2023-11-19T03:33:05;11.90;;;7.90;;
69551;SDS011;63774;45.292;11.784;2023-11-19T03:35:36;11.90;;;7.90;;
69551;SDS011;63774;45.292;11.784;2023-11-19T03:38:02;11.20;;;7.60;;
69551;SDS011;63774;45.292;11.784;2023-11-19T03:40:27;12.20;;;8.40;;
69551;SDS011;63774;45.292;11.784;2023-11-19T03:42:53;10.60;;;7.60;;
69551;SDS011;63774;45.292;11.784;2023-11-19T03:45:19;11.50;;;7.90;;
69551;SDS011;63774;45.292;11.784;2023-11-19T03:47:47;12.40;;;8.30;;
69551;SDS011;63774;45.292;11.784;2023-11-19T03:50:15;11.70;;;7.80;;
69551;SDS011;63774;45.292;11.784;2023-11-19T03:52:41;11.70;;;7.60;;
69551;SDS011;63774;45.292;11.784;2023-11-19T03:55:07;11.20;;;7.80;;
69551;SDS011;63774;45.292;11.784;2023-11-19T03:57:34;11.80;;;7.90;;
69551;SDS011;63774;45.292;11.784;2023-11-19T03:59:59;10.90;;;7.70;;
69551;SDS011;63774;45.292;11.784;2023-11-19T04:02:25;11.70;;;7.90;;
69551;SDS011;63774;45.292;11.784;2023-11-19T04:04:56;11.00;;;7.50;;
69551;SDS011;63774;45.292;11.784;2023-11-19T04:07:21;11.10;;;7.70;;
69551;SDS011;63774;45.292;11.784;2023-11-19T04:09:47;11.40;;;7.20;;
69551;SDS011;63774;45.292;11.784;2023-11-19T04:12:16;11.60;;;7.70;;
69551;SDS011;63774;45.292;11.784;2023-11-19T04:14:41;10.30;;;7.60;;
69551;SDS011;63774;45.292;11.784;2023-11-19T04:17:09;10.70;;;7.60;;
69551;SDS011;63774;45.292;11.784;2023-11-19T04:19:40;12.30;;;8.20;;
69551;SDS011;63774;45.292;11.784;2023-11-19T04:22:07;10.30;;;7.10;;
69551;SDS011;63774;45.292;11.784;2023-11-19T04:24:33;10.10;;;7.10;;
69551;SDS011;63774;45.292;11.784;2023-11-19T04:26:58;12.60;;;7.50;;
69551;SDS011;63774;45.292;11.784;2023-11-19T04:29:23;10.50;;;7.20;;
69551;SDS011;63774;45.292;11.784;2023-11-19T04:31:49;13.00;;;7.80;;
69551;SDS011;63774;45.292;11.784;2023-11-19T04:34:14;9.80;;;7.10;;
69551;SDS011;63774;45.292;11.784;2023-11-19T04:36:49;11.70;;;7.30;;
69551;SDS011;63774;45.292;11.784;2023-11-19T04:39:17;9.80;;;7.00;;
69551;SDS011;63774;45.292;11.784;2023-11-19T04:41:49;11.00;;;7.30;;
69551;SDS011;63774;45.292;11.784;2023-11-19T04:44:15;11.50;;;7.20;;
69551;SDS011;63774;45.292;11.784;2023-11-19T04:46:44;9.70;;;6.90;;
69551;SDS011;63774;45.292;11.784;2023-11-19T04:49:10;11.00;;;7.00;;
69551;SDS011;63774;45.292;11.784;2023-11-19T04:51:41;10.30;;;7.20;;
69551;SDS011;63774;45.292;11.784;2023-11-19T04:54:10;10.10;;;7.00;;
69551;SDS011;63774;45.292;11.784;2023-11-19T04:56:36;12.30;;;7.80;;
69551;SDS011;63774;45.292;11.784;2023-11-19T04:59:05;10.60;;;7.20;;
69551;SDS011;63774;45.292;11.784;2023-11-19T05:01:30;11.40;;;7.40;;
69551;SDS011;63774;45.292;11.784;2023-11-19T05:03:56;10.70;;;7.00;;
69551;SDS011;63774;45.292;11.784;2023-11-19T05:06:25;9.90;;;7.00;;
69551;SDS011;63774;45.292;11.784;2023-11-19T05:08:51;12.60;;;7.00;;
69551;SDS011;63774;45.292;11.784;2023-11-19T05:11:16;11.50;;;6.80;;
69551;SDS011;63774;45.292;11.784;2023-11-19T05:13:44;11.20;;;8.30;;
69551;SDS011;63774;45.292;11.784;2023-11-19T05:16:10;11.20;;;7.20;;
69551;SDS011;63774;45.292;11.784;2023-11-19T05:18:36;10.20;;;6.60;;
69551;SDS011;63774;45.292;11.784;2023-11-19T05:21:01;11.70;;;7.00;;
69551;SDS011;63774;45.292;11.784;2023-11-19T05:23:27;12.30;;;7.30;;
69551;SDS011;63774;45.292;11.784;2023-11-19T05:25:52;11.30;;;7.40;;
69551;SDS011;63774;45.292;11.784;2023-11-19T05:28:17;9.90;;;7.10;;
69551;SDS011;63774;45.292;11.784;2023-11-19T05:30:43;11.10;;;6.90;;
69551;SDS011;63774;45.292;11.784;2023-11-19T05:33:08;11.10;;;7.30;;
69551;SDS011;63774;45.292;11.784;2023-11-19T05:35:37;10.80;;;7.00;;
69551;SDS011;63774;45.292;11.784;2023-11-19T05:38:02;10.90;;;7.00;;
69551;SDS011;63774;45.292;11.784;2023-11-19T05:40:31;10.30;;;6.60;;
69551;SDS011;63774;45.292;11.784;2023-11-19T05:43:00;11.00;;;6.90;;
69551;SDS011;63774;45.292;11.784;2023-11-19T05:45:26;11.80;;;6.90;;
69551;SDS011;63774;45.292;11.784;2023-11-19T05:47:51;10.70;;;7.00;;
69551;SDS011;63774;45.292;11.784;2023-11-19T05:50:17;10.00;;;6.90;;
69551;SDS011;63774;45.292;11.784;2023-11-19T05:52:48;9.90;;;6.80;;
69551;SDS011;63774;45.292;11.784;2023-11-19T05:55:14;10.60;;;7.00;;
69551;SDS011;63774;45.292;11.784;2023-11-19T05:57:39;11.90;;;7.00;;
69551;SDS011;63774;45.292;11.784;2023-11-19T06:00:07;9.70;;;6.90;;
69551;SDS011;63774;45.292;11.784;2023-11-19T06:02:33;12.00;;;7.40;;
69551;SDS011;63774;45.292;11.784;2023-11-19T06:05:04;12.30;;;6.90;;
69551;SDS011;63774;45.292;11.784;2023-11-19T06:07:31;9.30;;;6.40;;
69551;SDS011;63774;45.292;11.784;2023-11-19T06:09:56;10.00;;;6.20;;
69551;SDS011;63774;45.292;11.784;2023-11-19T06:12:21;10.90;;;6.80;;
69551;SDS011;63774;45.292;11.784;2023-11-19T06:14:47;10.10;;;7.00;;
69551;SDS011;63774;45.292;11.784;2023-11-19T06:17:12;12.10;;;7.20;;
69551;SDS011;63774;45.292;11.784;2023-11-19T06:19:37;11.10;;;7.10;;
69551;SDS011;63774;45.292;11.784;2023-11-19T06:22:03;11.30;;;6.80;;
69551;SDS011;63774;45.292;11.784;2023-11-19T06:24:28;10.10;;;6.70;;
69551;SDS011;63774;45.292;11.784;2023-11-19T06:26:54;10.20;;;6.70;;
69551;SDS011;63774;45.292;11.784;2023-11-19T06:29:19;10.60;;;6.20;;
69551;SDS011;63774;45.292;11.784;2023-11-19T06:31:44;10.90;;;6.70;;
69551;SDS011;63774;45.292;11.784;2023-11-19T06:34:10;10.30;;;7.10;;
69551;SDS011;63774;45.292;11.784;2023-11-19T06:36:35;11.10;;;6.30;;
69551;SDS011;63774;45.292;11.784;2023-11-19T06:39:00;10.30;;;6.40;;
69551;SDS011;63774;45.292;11.784;2023-11-19T06:41:26;9.70;;;7.20;;
69551;SDS011;63774;45.292;11.784;2023-11-19T06:43:52;9.50;;;6.50;;
69551;SDS011;63774;45.292;11.784;2023-11-19T06:46:17;10.70;;;6.30;;
69551;SDS011;63774;45.292;11.784;2023-11-19T06:48:43;9.10;;;6.50;;
69551;SDS011;63774;45.292;11.784;2023-11-19T06:51:09;8.80;;;6.20;;
69551;SDS011;63774;45.292;11.784;2023-11-19T06:53:34;11.50;;;7.00;;
69551;SDS011;63774;45.292;11.784;2023-11-19T06:55:59;10.00;;;6.10;;
69551;SDS011;63774;45.292;11.784;2023-11-19T06:58:25;10.30;;;6.30;;
69551;SDS011;63774;45.292;11.784;2023-11-19T07:00:50;10.70;;;6.60;;
69551;SDS011;63774;45.292;11.784;2023-11-19T07:03:16;9.20;;;6.50;;
69551;SDS011;63774;45.292;11.784;2023-11-19T07:05:41;9.80;;;6.40;;
69551;SDS011;63774;45.292;11.784;2023-11-19T07:08:07;9.10;;;6.20;;
69551;SDS011;63774;45.292;11.784;2023-11-19T07:10:32;10.90;;;6.20;;
69551;SDS011;63774;45.292;11.784;2023-11-19T07:12:58;10.80;;;6.30;;
69551;SDS011;63774;45.292;11.784;2023-11-19T07:15:27;8.90;;;6.60;;
69551;SDS011;63774;45.292;11.784;2023-11-19T07:17:55;10.80;;;5.90;;
69551;SDS011;63774;45.292;11.784;2023-11-19T07:20:23;10.40;;;6.30;;
69551;SDS011;63774;45.292;11.784;2023-11-19T07:25:52;9.80;;;6.30;;
69551;SDS011;63774;45.292;11.784;2023-11-19T07:28:18;9.40;;;6.20;;
69551;SDS011;63774;45.292;11.784;2023-11-19T07:30:44;10.00;;;6.30;;
69551;SDS011;63774;45.292;11.784;2023-11-19T07:33:09;10.40;;;6.60;;
69551;SDS011;63774;45.292;11.784;2023-11-19T07:35:38;9.10;;;6.10;;
69551;SDS011;63774;45.292;11.784;2023-11-19T07:38:04;9.60;;;6.20;;
69551;SDS011;63774;45.292;11.784;2023-11-19T07:40:33;10.80;;;6.30;;
69551;SDS011;63774;45.292;11.784;2023-11-19T07:42:59;10.40;;;6.20;;
69551;SDS011;63774;45.292;11.784;2023-11-19T07:45:24;10.10;;;6.00;;
69551;SDS011;63774;45.292;11.784;2023-11-19T07:47:50;10.20;;;6.30;;
69551;SDS011;63774;45.292;11.784;2023-11-19T07:50:16;9.40;;;6.10;;
69551;SDS011;63774;45.292;11.784;2023-11-19T07:52:44;9.40;;;6.00;;
69551;SDS011;63774;45.292;11.784;2023-11-19T07:55:09;9.60;;;5.80;;
69551;SDS011;63774;45.292;11.784;2023-11-19T07:57:35;10.90;;;6.30;;
69551;SDS011;63774;45.292;11.784;2023-11-19T08:00:00;9.60;;;6.30;;
69551;SDS011;63774;45.292;11.784;2023-11-19T08:02:27;9.00;;;6.10;;
69551;SDS011;63774;45.292;11.784;2023-11-19T08:04:53;8.70;;;5.90;;
69551;SDS011;63774;45.292;11.784;2023-11-19T08:07:20;8.90;;;5.90;;
69551;SDS011;63774;45.292;11.784;2023-11-19T08:09:45;10.80;;;6.20;;
69551;SDS011;63774;45.292;11.784;2023-11-19T08:12:11;9.90;;;6.40;;
69551;SDS011;63774;45.292;11.784;2023-11-19T08:14:38;9.30;;;6.10;;
69551;SDS011;63774;45.292;11.784;2023-11-19T08:17:03;9.70;;;5.90;;
69551;SDS011;63774;45.292;11.784;2023-11-19T08:19:28;10.80;;;5.80;;
69551;SDS011;63774;45.292;11.784;2023-11-19T08:21:54;9.20;;;5.90;;
69551;SDS011;63774;45.292;11.784;2023-11-19T08:24:19;7.90;;;5.50;;
69551;SDS011;63774;45.292;11.784;2023-11-19T08:26:45;8.90;;;5.70;;
69551;SDS011;63774;45.292;11.784;2023-11-19T08:29:10;9.00;;;5.70;;
69551;SDS011;63774;45.292;11.784;2023-11-19T08:31:36;9.10;;;5.70;;
69551;SDS011;63774;45.292;11.784;2023-11-19T08:34:01;9.00;;;5.70;;
69551;SDS011;63774;45.292;11.784;2023-11-19T08:36:26;8.50;;;5.70;;
69551;SDS011;63774;45.292;11.784;2023-11-19T08:38:53;7.90;;;5.50;;
69551;SDS011;63774;45.292;11.784;2023-11-19T08:41:18;11.30;;;5.90;;
69551;SDS011;63774;45.292;11.784;2023-11-19T08:43:44;9.20;;;5.80;;
69551;SDS011;63774;45.292;11.784;2023-11-19T08:46:12;9.40;;;5.90;;
69551;SDS011;63774;45.292;11.784;2023-11-19T08:48:38;9.60;;;6.20;;
69551;SDS011;63774;45.292;11.784;2023-11-19T08:51:04;9.10;;;5.60;;
69551;SDS011;63774;45.292;11.784;2023-11-19T08:53:29;8.70;;;5.60;;
69551;SDS011;63774;45.292;11.784;2023-11-19T08:55:55;9.30;;;6.10;;
69551;SDS011;63774;45.292;11.784;2023-11-19T08:58:20;9.20;;;5.90;;
69551;SDS011;63774;45.292;11.784;2023-11-19T09:00:48;10.20;;;6.10;;
69551;SDS011;63774;45.292;11.784;2023-11-19T09:03:13;9.20;;;5.20;;
69551;SDS011;63774;45.292;11.784;2023-11-19T09:05:39;9.30;;;5.90;;
69551;SDS011;63774;45.292;11.784;2023-11-19T09:08:07;7.70;;;5.20;;
69551;SDS011;63774;45.292;11.784;2023-11-19T09:10:33;9.60;;;5.80;;
69551;SDS011;63774;45.292;11.784;2023-11-19T09:12:58;10.60;;;6.30;;
69551;SDS011;63774;45.292;11.784;2023-11-19T09:15:23;9.90;;;5.80;;
69551;SDS011;63774;45.292;11.784;2023-11-19T09:17:49;9.00;;;5.70;;
69551;SDS011;63774;45.292;11.784;2023-11-19T09:20:14;10.40;;;5.80;;
69551;SDS011;63774;45.292;11.784;2023-11-19T09:22:40;9.60;;;5.30;;
69551;SDS011;63774;45.292;11.784;2023-11-19T09:25:06;10.40;;;5.90;;
69551;SDS011;63774;45.292;11.784;2023-11-19T09:27:31;9.00;;;5.90;;
69551;SDS011;63774;45.292;11.784;2023-11-19T09:29:57;9.30;;;5.90;;
69551;SDS011;63774;45.292;11.784;2023-11-19T09:32:23;9.20;;;5.60;;
69551;SDS011;63774;45.292;11.784;2023-11-19T09:34:49;10.70;;;5.60;;
69551;SDS011;63774;45.292;11.784;2023-11-19T09:37:14;9.80;;;5.40;;
69551;SDS011;63774;45.292;11.784;2023-11-19T09:39:40;8.50;;;5.70;;
69551;SDS011;63774;45.292;11.784;2023-11-19T09:42:08;8.40;;;5.50;;
69551;SDS011;63774;45.292;11.784;2023-11-19T09:44:37;9.30;;;5.30;;
69551;SDS011;63774;45.292;11.784;2023-11-19T09:47:06;9.00;;;5.00;;
69551;SDS011;63774;45.292;11.784;2023-11-19T09:49:33;10.70;;;5.30;;
69551;SDS011;63774;45.292;11.784;2023-11-19T09:52:01;12.90;;;5.40;;
69551;SDS011;63774;45.292;11.784;2023-11-19T09:54:29;9.20;;;5.30;;
69551;SDS011;63774;45.292;11.784;2023-11-19T09:56:55;10.50;;;5.10;;
69551;SDS011;63774;45.292;11.784;2023-11-19T09:59:25;9.10;;;5.00;;
69551;SDS011;63774;45.292;11.784;2023-11-19T10:01:52;8.20;;;5.10;;
69551;SDS011;63774;45.292;11.784;2023-11-19T10:04:17;9.40;;;5.30;;
69551;SDS011;63774;45.292;11.784;2023-11-19T10:06:47;10.40;;;5.10;;
69551;SDS011;63774;45.292;11.784;2023-11-19T10:09:12;9.20;;;5.10;;
69551;SDS011;63774;45.292;11.784;2023-11-19T10:11:40;10.80;;;5.20;;
69551;SDS011;63774;45.292;11.784;2023-11-19T10:14:05;9.40;;;5.30;;
69551;SDS011;63774;45.292;11.784;2023-11-19T10:16:34;10.50;;;5.00;;
69551;SDS011;63774;45.292;11.784;2023-11-19T10:19:03;10.70;;;5.50;;
69551;SDS011;63774;45.292;11.784;2023-11-19T10:21:28;10.40;;;5.20;;
69551;SDS011;63774;45.292;11.784;2023-11-19T10:23:56;9.60;;;5.10;;
69551;SDS011;63774;45.292;11.784;2023-11-19T10:26:24;8.70;;;5.00;;
69551;SDS011;63774;45.292;11.784;2023-11-19T10:28:51;12.40;;;5.60;;
69551;SDS011;63774;45.292;11.784;2023-11-19T10:31:16;9.20;;;4.90;;
69551;SDS011;63774;45.292;11.784;2023-11-19T10:33:43;10.40;;;5.50;;
69551;SDS011;63774;45.292;11.784;2023-11-19T10:36:12;9.90;;;5.40;;
69551;SDS011;63774;45.292;11.784;2023-11-19T10:38:38;9.60;;;5.30;;
69551;SDS011;63774;45.292;11.784;2023-11-19T10:41:03;11.70;;;4.90;;
69551;SDS011;63774;45.292;11.784;2023-11-19T10:43:30;10.30;;;4.80;;
69551;SDS011;63774;45.292;11.784;2023-11-19T10:46:08;11.20;;;5.40;;
69551;SDS011;63774;45.292;11.784;2023-11-19T10:48:34;11.10;;;5.10;;
69551;SDS011;63774;45.292;11.784;2023-11-19T10:51:00;9.20;;;4.70;;
69551;SDS011;63774;45.292;11.784;2023-11-19T10:53:26;8.70;;;4.60;;
69551;SDS011;63774;45.292;11.784;2023-11-19T10:55:52;10.00;;;4.80;;
69551;SDS011;63774;45.292;11.784;2023-11-19T10:58:20;14.10;;;4.90;;
69551;SDS011;63774;45.292;11.784;2023-11-19T11:00:54;11.70;;;5.10;;
69551;SDS011;63774;45.292;11.784;2023-11-19T11:03:21;13.30;;;5.20;;
69551;SDS011;63774;45.292;11.784;2023-11-19T11:05:49;9.90;;;5.20;;
69551;SDS011;63774;45.292;11.784;2023-11-19T11:08:14;12.30;;;5.50;;
69551;SDS011;63774;45.292;11.784;2023-11-19T11:10:42;12.10;;;5.30;;
69551;SDS011;63774;45.292;11.784;2023-11-19T11:13:11;8.60;;;4.70;;
69551;SDS011;63774;45.292;11.784;2023-11-19T11:15:38;8.80;;;4.70;;
69551;SDS011;63774;45.292;11.784;2023-11-19T11:18:04;10.60;;;4.60;;
69551;SDS011;63774;45.292;11.784;2023-11-19T11:20:32;7.80;;;4.40;;
69551;SDS011;63774;45.292;11.784;2023-11-19T11:25:30;11.30;;;5.20;;
69551;SDS011;63774;45.292;11.784;2023-11-19T11:30:49;11.50;;;4.70;;
69551;SDS011;63774;45.292;11.784;2023-11-19T11:35:53;8.10;;;4.50;;
69551;SDS011;63774;45.292;11.784;2023-11-19T11:38:23;9.60;;;4.70;;
69551;SDS011;63774;45.292;11.784;2023-11-19T11:43:44;9.00;;;4.40;;
69551;SDS011;63774;45.292;11.784;2023-11-19T11:46:37;7.60;;;4.00;;
69551;SDS011;63774;45.292;11.784;2023-11-19T11:48:55;8.60;;;4.20;;
69551;SDS011;63774;45.292;11.784;2023-11-19T11:51:43;8.50;;;4.80;;
69551;SDS011;63774;45.292;11.784;2023-11-19T11:54:07;10.40;;;4.50;;
69551;SDS011;63774;45.292;11.784;2023-11-19T11:56:33;10.00;;;4.40;;
69551;SDS011;63774;45.292;11.784;2023-11-19T11:58:59;9.50;;;4.90;;
69551;SDS011;63774;45.292;11.784;2023-11-19T12:01:25;8.60;;;4.60;;
69551;SDS011;63774;45.292;11.784;2023-11-19T12:03:56;10.70;;;4.20;;
69551;SDS011;63774;45.292;11.784;2023-11-19T12:06:21;7.60;;;4.60;;
69551;SDS011;63774;45.292;11.784;2023-11-19T12:08:49;8.30;;;4.50;;
69551;SDS011;63774;45.292;11.784;2023-11-19T12:11:19;7.00;;;4.10;;
69551;SDS011;63774;45.292;11.784;2023-11-19T12:13:52;9.90;;;4.60;;
69551;SDS011;63774;45.292;11.784;2023-11-19T12:16:21;7.50;;;4.20;;
69551;SDS011;63774;45.292;11.784;2023-11-19T12:18:47;8.60;;;4.00;;
69551;SDS011;63774;45.292;11.784;2023-11-19T12:21:26;7.70;;;4.30;;
69551;SDS011;63774;45.292;11.784;2023-11-19T12:23:52;7.10;;;4.20;;
69551;SDS011;63774;45.292;11.784;2023-11-19T12:26:30;8.00;;;3.90;;
69551;SDS011;63774;45.292;11.784;2023-11-19T12:28:58;8.50;;;4.00;;
69551;SDS011;63774;45.292;11.784;2023-11-19T12:31:25;9.50;;;4.40;;
69551;SDS011;63774;45.292;11.784;2023-11-19T12:33:51;7.60;;;4.30;;
69551;SDS011;63774;45.292;11.784;2023-11-19T12:36:18;7.80;;;4.40;;
69551;SDS011;63774;45.292;11.784;2023-11-19T12:38:44;7.90;;;4.50;;
69551;SDS011;63774;45.292;11.784;2023-11-19T12:41:10;7.40;;;4.20;;
69551;SDS011;63774;45.292;11.784;2023-11-19T12:43:37;6.60;;;5.30;;
69551;SDS011;63774;45.292;11.784;2023-11-19T12:46:18;8.70;;;4.30;;
69551;SDS011;63774;45.292;11.784;2023-11-19T12:48:45;6.70;;;4.10;;
69551;SDS011;63774;45.292;11.784;2023-11-19T12:51:13;7.50;;;4.20;;
69551;SDS011;63774;45.292;11.784;2023-11-19T12:53:48;8.30;;;4.60;;
69551;SDS011;63774;45.292;11.784;2023-11-19T12:56:20;8.40;;;4.30;;
69551;SDS011;63774;45.292;11.784;2023-11-19T12:58:45;12.10;;;5.20;;
69551;SDS011;63774;45.292;11.784;2023-11-19T13:01:17;7.70;;;4.00;;
69551;SDS011;63774;45.292;11.784;2023-11-19T13:03:43;9.10;;;4.10;;
69551;SDS011;63774;45.292;11.784;2023-11-19T13:06:09;8.10;;;3.90;;
69551;SDS011;63774;45.292;11.784;2023-11-19T13:08:44;7.60;;;4.40;;
69551;SDS011;63774;45.292;11.784;2023-11-19T15:31:34;9.40;;;4.80;;
69551;SDS011;63774;45.292;11.784;2023-11-19T15:33:59;9.20;;;5.30;;
69551;SDS011;63774;45.292;11.784;2023-11-19T16:31:09;10.70;;;6.40;;
69551;SDS011;63774;45.292;11.784;2023-11-19T16:33:34;11.30;;;6.20;;
69551;SDS011;63774;45.292;11.784;2023-11-19T16:36:00;9.80;;;6.30;;
69551;SDS011;63774;45.292;11.784;2023-11-19T16:38:25;10.30;;;6.80;;
69551;SDS011;63774;45.292;11.784;2023-11-19T16:40:52;12.70;;;6.50;;
69551;SDS011;63774;45.292;11.784;2023-11-19T16:43:17;9.70;;;6.50;;
69551;SDS011;63774;45.292;11.784;2023-11-19T16:45:43;11.50;;;6.40;;
69551;SDS011;63774;45.292;11.784;2023-11-19T16:48:10;11.50;;;6.30;;
69551;SDS011;63774;45.292;11.784;2023-11-19T16:50:36;9.20;;;6.30;;
69551;SDS011;63774;45.292;11.784;2023-11-19T16:53:02;11.80;;;6.60;;
69551;SDS011;63774;45.292;11.784;2023-11-19T16:55:33;9.70;;;6.60;;
69551;SDS011;63774;45.292;11.784;2023-11-19T16:58:04;10.10;;;7.00;;
69551;SDS011;63774;45.292;11.784;2023-11-19T17:00:29;10.70;;;6.60;;
69551;SDS011;63774;45.292;11.784;2023-11-19T17:02:55;12.90;;;6.90;;
69551;SDS011;63774;45.292;11.784;2023-11-19T17:05:24;10.00;;;6.30;;
69551;SDS011;63774;45.292;11.784;2023-11-19T17:07:49;9.10;;;6.30;;
69551;SDS011;63774;45.292;11.784;2023-11-19T17:10:15;11.20;;;7.10;;
69551;SDS011;63774;45.292;11.784;2023-11-19T17:12:41;9.70;;;6.40;;
69551;SDS011;63774;45.292;11.784;2023-11-19T17:15:06;10.20;;;6.10;;
69551;SDS011;63774;45.292;11.784;2023-11-19T17:17:34;10.00;;;6.00;;
69551;SDS011;63774;45.292;11.784;2023-11-19T17:20:03;9.80;;;6.20;;
69551;SDS011;63774;45.292;11.784;2023-11-19T17:22:33;10.00;;;6.30;;
69551;SDS011;63774;45.292;11.784;2023-11-19T17:25:02;10.30;;;6.40;;
69551;SDS011;63774;45.292;11.784;2023-11-19T17:27:28;9.20;;;6.10;;
69551;SDS011;63774;45.292;11.784;2023-11-19T17:29:54;12.00;;;6.20;;
69551;SDS011;63774;45.292;11.784;2023-11-19T17:32:20;9.60;;;6.50;;
69551;SDS011;63774;45.292;11.784;2023-11-19T17:34:45;11.00;;;6.40;;
69551;SDS011;63774;45.292;11.784;2023-11-19T17:37:11;10.80;;;6.60;;
69551;SDS011;63774;45.292;11.784;2023-11-19T17:39:36;10.30;;;6.30;;
69551;SDS011;63774;45.292;11.784;2023-11-19T17:42:02;9.20;;;6.40;;
69551;SDS011;63774;45.292;11.784;2023-11-19T17:44:27;8.60;;;7.10;;
69551;SDS011;63774;45.292;11.784;2023-11-19T17:46:52;9.90;;;6.20;;
69551;SDS011;63774;45.292;11.784;2023-11-19T17:49:18;9.00;;;6.50;;
69551;SDS011;63774;45.292;11.784;2023-11-19T17:51:44;11.10;;;6.80;;